sensor_id;sensor_type;location;lat;lon;timestamp;P1;durP1;ratioP1;P2;durP2;ratioP2
37859;SDS011;23698;52.014;5.190;2022-07-23T00:00:00;10.15;;;3.55;;
37859;SDS011;23698;52.014;5.190;2022-07-23T00:03:10;6.82;;;2.90;;
37859;SDS011;23698;52.014;5.190;2022-07-23T00:06:16;3.25;;;2.60;;
37859;SDS011;23698;52.014;5.190;2022-07-23T00:09:20;4.70;;;2.85;;
37859;SDS011;23698;52.014;5.190;2022-07-23T00:12:25;5.47;;;3.33;;
37859;SDS011;23698;52.014;5.190;2022-07-23T00:15:30;6.47;;;3.08;;
37859;SDS011;23698;52.014;5.190;2022-07-23T00:18:37;6.32;;;3.30;;
37859;SDS011;23698;52.014;5.190;2022-07-23T00:21:42;7.78;;;3.83;;
37859;SDS011;23698;52.014;5.190;2022-07-23T00:24:48;8.02;;;3.53;;
37859;SDS011;23698;52.014;5.190;2022-07-23T00:28:13;8.32;;;3.80;;
37859;SDS011;23698;52.014;5.190;2022-07-23T00:31:19;6.50;;;3.70;;
37859;SDS011;23698;52.014;5.190;2022-07-23T00:34:26;5.32;;;4.13;;
37859;SDS011;23698;52.014;5.190;2022-07-23T00:37:32;6.50;;;4.18;;
37859;SDS011;23698;52.014;5.190;2022-07-23T00:40:37;5.50;;;3.60;;
37859;SDS011;23698;52.014;5.190;2022-07-23T00:43:43;7.43;;;3.97;;
37859;SDS011;23698;52.014;5.190;2022-07-23T00:46:50;8.27;;;3.97;;
37859;SDS011;23698;52.014;5.190;2022-07-23T00:49:58;7.15;;;3.58;;
37859;SDS011;23698;52.014;5.190;2022-07-23T00:53:04;5.03;;;3.50;;
37859;SDS011;23698;52.014;5.190;2022-07-23T00:56:09;4.22;;;3.13;;
37859;SDS011;23698;52.014;5.190;2022-07-23T00:59:15;6.57;;;3.47;;
37859;SDS011;23698;52.014;5.190;2022-07-23T01:02:20;7.72;;;3.40;;
37859;SDS011;23698;52.014;5.190;2022-07-23T01:05:27;4.45;;;3.03;;
37859;SDS011;23698;52.014;5.190;2022-07-23T01:08:32;7.00;;;3.80;;
37859;SDS011;23698;52.014;5.190;2022-07-23T01:11:38;5.40;;;3.55;;
37859;SDS011;23698;52.014;5.190;2022-07-23T01:14:52;6.20;;;3.33;;
37859;SDS011;23698;52.014;5.190;2022-07-23T01:17:59;4.22;;;3.55;;
37859;SDS011;23698;52.014;5.190;2022-07-23T01:21:07;10.13;;;4.93;;
37859;SDS011;23698;52.014;5.190;2022-07-23T01:24:18;7.72;;;4.22;;
37859;SDS011;23698;52.014;5.190;2022-07-23T01:27:32;9.77;;;4.22;;
37859;SDS011;23698;52.014;5.190;2022-07-23T01:30:39;5.90;;;4.05;;
37859;SDS011;23698;52.014;5.190;2022-07-23T01:33:45;6.63;;;3.47;;
37859;SDS011;23698;52.014;5.190;2022-07-23T01:36:51;9.52;;;4.63;;
37859;SDS011;23698;52.014;5.190;2022-07-23T01:39:58;6.82;;;4.38;;
37859;SDS011;23698;52.014;5.190;2022-07-23T01:43:05;9.60;;;4.63;;
37859;SDS011;23698;52.014;5.190;2022-07-23T01:46:12;7.03;;;4.40;;
37859;SDS011;23698;52.014;5.190;2022-07-23T01:49:24;9.00;;;5.10;;
37859;SDS011;23698;52.014;5.190;2022-07-23T01:52:54;8.15;;;4.95;;
37859;SDS011;23698;52.014;5.190;2022-07-23T01:56:02;10.02;;;5.32;;
37859;SDS011;23698;52.014;5.190;2022-07-23T01:59:08;9.73;;;4.93;;
37859;SDS011;23698;52.014;5.190;2022-07-23T02:02:14;8.38;;;4.93;;
37859;SDS011;23698;52.014;5.190;2022-07-23T02:05:19;10.57;;;4.82;;
37859;SDS011;23698;52.014;5.190;2022-07-23T02:08:25;11.82;;;4.88;;
37859;SDS011;23698;52.014;5.190;2022-07-23T02:11:32;7.38;;;5.15;;
37859;SDS011;23698;52.014;5.190;2022-07-23T02:14:37;11.27;;;5.32;;
37859;SDS011;23698;52.014;5.190;2022-07-23T02:17:43;11.30;;;5.30;;
37859;SDS011;23698;52.014;5.190;2022-07-23T02:20:48;8.63;;;5.53;;
37859;SDS011;23698;52.014;5.190;2022-07-23T02:23:53;7.50;;;5.05;;
37859;SDS011;23698;52.014;5.190;2022-07-23T02:27:00;16.50;;;6.18;;
37859;SDS011;23698;52.014;5.190;2022-07-23T02:30:06;8.55;;;6.35;;
37859;SDS011;23698;52.014;5.190;2022-07-23T02:33:11;10.48;;;6.13;;
37859;SDS011;23698;52.014;5.190;2022-07-23T02:36:17;8.02;;;6.15;;
37859;SDS011;23698;52.014;5.190;2022-07-23T02:39:23;9.32;;;6.68;;
37859;SDS011;23698;52.014;5.190;2022-07-23T02:42:30;10.27;;;6.45;;
37859;SDS011;23698;52.014;5.190;2022-07-23T02:45:35;9.35;;;5.97;;
37859;SDS011;23698;52.014;5.190;2022-07-23T02:48:40;11.60;;;6.03;;
37859;SDS011;23698;52.014;5.190;2022-07-23T02:51:46;11.55;;;5.85;;
37859;SDS011;23698;52.014;5.190;2022-07-23T02:54:51;13.27;;;5.68;;
37859;SDS011;23698;52.014;5.190;2022-07-23T02:57:58;10.38;;;6.78;;
37859;SDS011;23698;52.014;5.190;2022-07-23T03:01:04;10.18;;;6.13;;
37859;SDS011;23698;52.014;5.190;2022-07-23T03:04:09;10.00;;;6.13;;
37859;SDS011;23698;52.014;5.190;2022-07-23T03:07:14;8.65;;;6.25;;
37859;SDS011;23698;52.014;5.190;2022-07-23T03:10:19;12.55;;;6.30;;
37859;SDS011;23698;52.014;5.190;2022-07-23T03:13:26;16.08;;;6.10;;
37859;SDS011;23698;52.014;5.190;2022-07-23T03:16:34;12.60;;;6.38;;
37859;SDS011;23698;52.014;5.190;2022-07-23T03:19:39;10.88;;;6.10;;
37859;SDS011;23698;52.014;5.190;2022-07-23T03:22:45;10.77;;;6.05;;
37859;SDS011;23698;52.014;5.190;2022-07-23T03:25:52;9.75;;;5.63;;
37859;SDS011;23698;52.014;5.190;2022-07-23T03:29:00;8.00;;;5.78;;
37859;SDS011;23698;52.014;5.190;2022-07-23T03:32:08;8.73;;;5.65;;
37859;SDS011;23698;52.014;5.190;2022-07-23T03:35:14;10.25;;;6.43;;
37859;SDS011;23698;52.014;5.190;2022-07-23T03:38:27;12.93;;;6.07;;
37859;SDS011;23698;52.014;5.190;2022-07-23T03:41:32;13.00;;;6.53;;
37859;SDS011;23698;52.014;5.190;2022-07-23T03:44:39;9.60;;;6.40;;
37859;SDS011;23698;52.014;5.190;2022-07-23T03:47:45;12.18;;;6.18;;
37859;SDS011;23698;52.014;5.190;2022-07-23T03:50:50;11.60;;;5.85;;
37859;SDS011;23698;52.014;5.190;2022-07-23T03:53:56;9.85;;;6.45;;
37859;SDS011;23698;52.014;5.190;2022-07-23T03:57:01;8.35;;;5.72;;
37859;SDS011;23698;52.014;5.190;2022-07-23T04:00:11;8.40;;;5.60;;
37859;SDS011;23698;52.014;5.190;2022-07-23T04:03:18;9.73;;;5.72;;
37859;SDS011;23698;52.014;5.190;2022-07-23T04:06:24;8.73;;;5.50;;
37859;SDS011;23698;52.014;5.190;2022-07-23T04:09:30;9.93;;;5.45;;
37859;SDS011;23698;52.014;5.190;2022-07-23T04:12:36;9.02;;;6.13;;
37859;SDS011;23698;52.014;5.190;2022-07-23T04:15:43;10.75;;;6.30;;
37859;SDS011;23698;52.014;5.190;2022-07-23T04:18:49;11.40;;;6.18;;
37859;SDS011;23698;52.014;5.190;2022-07-23T04:21:57;9.85;;;6.13;;
37859;SDS011;23698;52.014;5.190;2022-07-23T04:25:03;10.52;;;6.55;;
37859;SDS011;23698;52.014;5.190;2022-07-23T04:28:09;10.65;;;7.03;;
37859;SDS011;23698;52.014;5.190;2022-07-23T04:31:16;13.65;;;8.43;;
37859;SDS011;23698;52.014;5.190;2022-07-23T04:34:22;11.57;;;7.25;;
37859;SDS011;23698;52.014;5.190;2022-07-23T04:37:30;10.43;;;5.50;;
37859;SDS011;23698;52.014;5.190;2022-07-23T04:40:36;9.32;;;6.22;;
37859;SDS011;23698;52.014;5.190;2022-07-23T04:43:41;11.82;;;5.85;;
37859;SDS011;23698;52.014;5.190;2022-07-23T04:46:47;12.45;;;7.45;;
37859;SDS011;23698;52.014;5.190;2022-07-23T04:49:54;13.50;;;8.05;;
37859;SDS011;23698;52.014;5.190;2022-07-23T04:52:59;12.85;;;7.07;;
37859;SDS011;23698;52.014;5.190;2022-07-23T04:56:05;10.05;;;6.05;;
37859;SDS011;23698;52.014;5.190;2022-07-23T04:59:10;8.68;;;6.00;;
37859;SDS011;23698;52.014;5.190;2022-07-23T05:02:18;10.38;;;6.78;;
37859;SDS011;23698;52.014;5.190;2022-07-23T05:05:24;10.65;;;6.13;;
37859;SDS011;23698;52.014;5.190;2022-07-23T05:08:33;9.88;;;6.15;;
37859;SDS011;23698;52.014;5.190;2022-07-23T05:11:38;10.40;;;5.70;;
37859;SDS011;23698;52.014;5.190;2022-07-23T05:14:43;9.25;;;5.40;;
37859;SDS011;23698;52.014;5.190;2022-07-23T05:17:50;7.85;;;5.25;;
37859;SDS011;23698;52.014;5.190;2022-07-23T05:20:55;9.50;;;5.80;;
37859;SDS011;23698;52.014;5.190;2022-07-23T05:24:01;9.63;;;6.10;;
37859;SDS011;23698;52.014;5.190;2022-07-23T05:27:06;11.50;;;5.97;;
37859;SDS011;23698;52.014;5.190;2022-07-23T05:30:12;6.95;;;4.82;;
37859;SDS011;23698;52.014;5.190;2022-07-23T05:33:21;7.47;;;4.95;;
37859;SDS011;23698;52.014;5.190;2022-07-23T05:36:26;10.00;;;5.15;;
37859;SDS011;23698;52.014;5.190;2022-07-23T05:39:33;10.07;;;4.55;;
37859;SDS011;23698;52.014;5.190;2022-07-23T05:42:39;6.00;;;3.92;;
37859;SDS011;23698;52.014;5.190;2022-07-23T05:45:45;6.40;;;4.13;;
37859;SDS011;23698;52.014;5.190;2022-07-23T05:48:52;6.30;;;3.58;;
37859;SDS011;23698;52.014;5.190;2022-07-23T05:52:23;8.88;;;3.92;;
37859;SDS011;23698;52.014;5.190;2022-07-23T05:55:47;6.05;;;2.92;;
37859;SDS011;23698;52.014;5.190;2022-07-23T05:58:52;4.90;;;2.55;;
37859;SDS011;23698;52.014;5.190;2022-07-23T06:01:58;5.05;;;2.60;;
37859;SDS011;23698;52.014;5.190;2022-07-23T06:05:05;4.97;;;2.50;;
37859;SDS011;23698;52.014;5.190;2022-07-23T06:08:12;5.03;;;3.08;;
37859;SDS011;23698;52.014;5.190;2022-07-23T06:11:17;3.70;;;1.70;;
37859;SDS011;23698;52.014;5.190;2022-07-23T06:14:22;3.97;;;1.77;;
37859;SDS011;23698;52.014;5.190;2022-07-23T06:17:31;5.22;;;1.70;;
37859;SDS011;23698;52.014;5.190;2022-07-23T06:20:38;4.57;;;1.73;;
37859;SDS011;23698;52.014;5.190;2022-07-23T06:23:42;1.75;;;1.17;;
37859;SDS011;23698;52.014;5.190;2022-07-23T06:26:48;3.67;;;1.35;;
37859;SDS011;23698;52.014;5.190;2022-07-23T06:29:53;2.50;;;1.30;;
37859;SDS011;23698;52.014;5.190;2022-07-23T06:32:59;4.07;;;1.30;;
37859;SDS011;23698;52.014;5.190;2022-07-23T06:36:07;3.70;;;1.30;;
37859;SDS011;23698;52.014;5.190;2022-07-23T06:39:13;3.85;;;1.60;;
37859;SDS011;23698;52.014;5.190;2022-07-23T06:42:21;4.78;;;1.30;;
37859;SDS011;23698;52.014;5.190;2022-07-23T06:45:34;3.38;;;1.38;;
37859;SDS011;23698;52.014;5.190;2022-07-23T06:48:39;4.35;;;1.05;;
37859;SDS011;23698;52.014;5.190;2022-07-23T06:51:46;4.88;;;1.30;;
37859;SDS011;23698;52.014;5.190;2022-07-23T06:54:51;2.85;;;1.00;;
37859;SDS011;23698;52.014;5.190;2022-07-23T06:57:57;6.20;;;1.50;;
37859;SDS011;23698;52.014;5.190;2022-07-23T07:01:02;2.20;;;1.48;;
37859;SDS011;23698;52.014;5.190;2022-07-23T07:04:07;3.83;;;1.65;;
37859;SDS011;23698;52.014;5.190;2022-07-23T07:07:14;7.85;;;2.47;;
37859;SDS011;23698;52.014;5.190;2022-07-23T07:10:20;3.60;;;1.70;;
37859;SDS011;23698;52.014;5.190;2022-07-23T07:13:26;1.98;;;1.60;;
37859;SDS011;23698;52.014;5.190;2022-07-23T07:16:30;3.40;;;1.80;;
37859;SDS011;23698;52.014;5.190;2022-07-23T07:19:36;3.33;;;1.60;;
37859;SDS011;23698;52.014;5.190;2022-07-23T07:22:42;5.60;;;2.33;;
37859;SDS011;23698;52.014;5.190;2022-07-23T07:25:47;5.45;;;1.75;;
37859;SDS011;23698;52.014;5.190;2022-07-23T07:28:53;6.20;;;2.13;;
37859;SDS011;23698;52.014;5.190;2022-07-23T07:31:58;3.03;;;1.38;;
37859;SDS011;23698;52.014;5.190;2022-07-23T07:35:03;4.75;;;1.90;;
37859;SDS011;23698;52.014;5.190;2022-07-23T07:38:10;3.63;;;1.73;;
37859;SDS011;23698;52.014;5.190;2022-07-23T07:41:15;6.93;;;2.30;;
37859;SDS011;23698;52.014;5.190;2022-07-23T07:44:21;3.88;;;1.75;;
37859;SDS011;23698;52.014;5.190;2022-07-23T07:47:26;5.40;;;1.80;;
37859;SDS011;23698;52.014;5.190;2022-07-23T07:50:31;3.33;;;1.75;;
37859;SDS011;23698;52.014;5.190;2022-07-23T07:53:38;2.78;;;1.73;;
37859;SDS011;23698;52.014;5.190;2022-07-23T07:56:44;2.97;;;1.95;;
37859;SDS011;23698;52.014;5.190;2022-07-23T07:59:49;5.18;;;2.15;;
37859;SDS011;23698;52.014;5.190;2022-07-23T08:02:59;2.15;;;1.60;;
37859;SDS011;23698;52.014;5.190;2022-07-23T08:06:06;2.72;;;1.60;;
37859;SDS011;23698;52.014;5.190;2022-07-23T08:09:13;3.75;;;1.98;;
37859;SDS011;23698;52.014;5.190;2022-07-23T08:12:18;3.88;;;1.58;;
37859;SDS011;23698;52.014;5.190;2022-07-23T08:15:24;5.90;;;1.55;;
37859;SDS011;23698;52.014;5.190;2022-07-23T08:18:30;3.55;;;1.73;;
37859;SDS011;23698;52.014;5.190;2022-07-23T08:21:35;5.70;;;1.80;;
37859;SDS011;23698;52.014;5.190;2022-07-23T08:24:42;5.30;;;1.98;;
37859;SDS011;23698;52.014;5.190;2022-07-23T08:27:46;2.70;;;1.65;;
37859;SDS011;23698;52.014;5.190;2022-07-23T08:30:52;3.67;;;1.65;;
37859;SDS011;23698;52.014;5.190;2022-07-23T08:33:57;2.85;;;1.25;;
37859;SDS011;23698;52.014;5.190;2022-07-23T08:37:02;4.20;;;1.65;;
37859;SDS011;23698;52.014;5.190;2022-07-23T08:40:10;3.55;;;1.80;;
37859;SDS011;23698;52.014;5.190;2022-07-23T08:43:19;4.30;;;1.58;;
37859;SDS011;23698;52.014;5.190;2022-07-23T08:46:26;1.83;;;1.58;;
37859;SDS011;23698;52.014;5.190;2022-07-23T08:49:32;3.70;;;1.70;;
37859;SDS011;23698;52.014;5.190;2022-07-23T08:52:38;3.55;;;1.70;;
37859;SDS011;23698;52.014;5.190;2022-07-23T08:55:45;5.70;;;1.80;;
37859;SDS011;23698;52.014;5.190;2022-07-23T08:58:52;4.85;;;2.20;;
37859;SDS011;23698;52.014;5.190;2022-07-23T09:01:58;3.03;;;1.65;;
37859;SDS011;23698;52.014;5.190;2022-07-23T09:05:04;5.65;;;1.52;;
37859;SDS011;23698;52.014;5.190;2022-07-23T09:08:11;4.78;;;2.17;;
37859;SDS011;23698;52.014;5.190;2022-07-23T09:11:19;5.45;;;1.90;;
37859;SDS011;23698;52.014;5.190;2022-07-23T09:14:35;7.13;;;2.40;;
37859;SDS011;23698;52.014;5.190;2022-07-23T09:17:42;5.97;;;2.88;;
37859;SDS011;23698;52.014;5.190;2022-07-23T09:20:47;3.78;;;2.10;;
37859;SDS011;23698;52.014;5.190;2022-07-23T09:23:54;3.75;;;1.98;;
37859;SDS011;23698;52.014;5.190;2022-07-23T09:27:04;2.60;;;1.75;;
37859;SDS011;23698;52.014;5.190;2022-07-23T09:30:10;7.07;;;1.75;;
37859;SDS011;23698;52.014;5.190;2022-07-23T09:33:15;2.63;;;1.70;;
37859;SDS011;23698;52.014;5.190;2022-07-23T09:36:27;3.55;;;2.03;;
37859;SDS011;23698;52.014;5.190;2022-07-23T09:39:34;3.45;;;1.75;;
37859;SDS011;23698;52.014;5.190;2022-07-23T09:42:40;1.67;;;1.50;;
37859;SDS011;23698;52.014;5.190;2022-07-23T09:49:27;5.40;;;2.47;;
37859;SDS011;23698;52.014;5.190;2022-07-23T09:52:33;3.38;;;2.10;;
37859;SDS011;23698;52.014;5.190;2022-07-23T09:55:39;3.75;;;1.70;;
37859;SDS011;23698;52.014;5.190;2022-07-23T09:58:47;4.05;;;1.65;;
37859;SDS011;23698;52.014;5.190;2022-07-23T10:01:55;6.18;;;2.08;;
37859;SDS011;23698;52.014;5.190;2022-07-23T10:05:03;3.17;;;1.60;;
37859;SDS011;23698;52.014;5.190;2022-07-23T10:08:29;3.72;;;1.98;;
37859;SDS011;23698;52.014;5.190;2022-07-23T10:11:59;3.05;;;1.60;;
37859;SDS011;23698;52.014;5.190;2022-07-23T10:15:29;2.53;;;1.77;;
37859;SDS011;23698;52.014;5.190;2022-07-23T10:18:34;5.38;;;2.03;;
37859;SDS011;23698;52.014;5.190;2022-07-23T10:21:46;3.78;;;1.80;;
37859;SDS011;23698;52.014;5.190;2022-07-23T10:24:58;3.75;;;1.83;;
37859;SDS011;23698;52.014;5.190;2022-07-23T10:28:20;3.80;;;2.00;;
37859;SDS011;23698;52.014;5.190;2022-07-23T10:35:07;4.75;;;1.45;;
37859;SDS011;23698;52.014;5.190;2022-07-23T10:38:19;4.43;;;1.98;;
37859;SDS011;23698;52.014;5.190;2022-07-23T10:41:32;4.15;;;1.83;;
37859;SDS011;23698;52.014;5.190;2022-07-23T10:44:39;2.63;;;1.90;;
37859;SDS011;23698;52.014;5.190;2022-07-23T10:47:47;2.83;;;1.77;;
37859;SDS011;23698;52.014;5.190;2022-07-23T10:51:07;4.07;;;1.80;;
37859;SDS011;23698;52.014;5.190;2022-07-23T10:54:20;2.17;;;1.60;;
37859;SDS011;23698;52.014;5.190;2022-07-23T10:57:26;3.50;;;1.90;;
37859;SDS011;23698;52.014;5.190;2022-07-23T11:00:32;1.52;;;1.30;;
37859;SDS011;23698;52.014;5.190;2022-07-23T11:03:40;2.70;;;1.73;;
37859;SDS011;23698;52.014;5.190;2022-07-23T11:13:42;2.97;;;1.77;;
37859;SDS011;23698;52.014;5.190;2022-07-23T11:16:50;3.65;;;2.00;;
37859;SDS011;23698;52.014;5.190;2022-07-23T11:20:14;3.58;;;1.83;;
37859;SDS011;23698;52.014;5.190;2022-07-23T11:23:22;5.20;;;1.58;;
37859;SDS011;23698;52.014;5.190;2022-07-23T11:26:40;3.35;;;2.00;;
37859;SDS011;23698;52.014;5.190;2022-07-23T11:29:49;4.03;;;1.70;;
37859;SDS011;23698;52.014;5.190;2022-07-23T11:33:15;4.38;;;1.70;;
37859;SDS011;23698;52.014;5.190;2022-07-23T11:36:23;5.22;;;2.15;;
37859;SDS011;23698;52.014;5.190;2022-07-23T11:39:28;2.55;;;1.58;;
37859;SDS011;23698;52.014;5.190;2022-07-23T11:42:36;4.78;;;2.20;;
37859;SDS011;23698;52.014;5.190;2022-07-23T11:45:43;5.97;;;2.20;;
37859;SDS011;23698;52.014;5.190;2022-07-23T11:49:00;2.58;;;2.20;;
37859;SDS011;23698;52.014;5.190;2022-07-23T11:52:09;4.05;;;2.08;;
37859;SDS011;23698;52.014;5.190;2022-07-23T11:55:15;3.97;;;2.17;;
37859;SDS011;23698;52.014;5.190;2022-07-23T11:58:21;3.80;;;2.60;;
37859;SDS011;23698;52.014;5.190;2022-07-23T12:01:27;5.15;;;2.58;;
37859;SDS011;23698;52.014;5.190;2022-07-23T12:04:38;11.93;;;3.05;;
37859;SDS011;23698;52.014;5.190;2022-07-23T12:07:46;7.00;;;2.70;;
37859;SDS011;23698;52.014;5.190;2022-07-23T12:10:53;6.13;;;2.88;;
37859;SDS011;23698;52.014;5.190;2022-07-23T12:13:58;3.30;;;2.67;;
37859;SDS011;23698;52.014;5.190;2022-07-23T12:17:07;5.30;;;2.97;;
37859;SDS011;23698;52.014;5.190;2022-07-23T12:20:13;4.47;;;2.65;;
37859;SDS011;23698;52.014;5.190;2022-07-23T12:23:21;6.10;;;2.95;;
37859;SDS011;23698;52.014;5.190;2022-07-23T12:26:28;4.40;;;2.20;;
37859;SDS011;23698;52.014;5.190;2022-07-23T12:29:34;4.78;;;1.85;;
37859;SDS011;23698;52.014;5.190;2022-07-23T12:32:42;2.85;;;2.35;;
37859;SDS011;23698;52.014;5.190;2022-07-23T12:35:48;6.90;;;2.70;;
37859;SDS011;23698;52.014;5.190;2022-07-23T12:38:56;3.40;;;2.70;;
37859;SDS011;23698;52.014;5.190;2022-07-23T12:42:01;6.13;;;2.00;;
37859;SDS011;23698;52.014;5.190;2022-07-23T12:45:08;3.53;;;2.80;;
37859;SDS011;23698;52.014;5.190;2022-07-23T12:48:15;3.05;;;2.25;;
37859;SDS011;23698;52.014;5.190;2022-07-23T12:51:25;6.03;;;2.70;;
37859;SDS011;23698;52.014;5.190;2022-07-23T12:54:32;6.65;;;2.60;;
37859;SDS011;23698;52.014;5.190;2022-07-23T12:57:44;5.45;;;2.33;;
37859;SDS011;23698;52.014;5.190;2022-07-23T13:00:53;4.13;;;2.50;;
37859;SDS011;23698;52.014;5.190;2022-07-23T13:04:01;2.63;;;2.00;;
37859;SDS011;23698;52.014;5.190;2022-07-23T13:07:15;3.25;;;2.33;;
37859;SDS011;23698;52.014;5.190;2022-07-23T13:10:22;2.30;;;1.92;;
37859;SDS011;23698;52.014;5.190;2022-07-23T13:13:28;3.88;;;2.13;;
37859;SDS011;23698;52.014;5.190;2022-07-23T13:16:34;2.83;;;2.03;;
37859;SDS011;23698;52.014;5.190;2022-07-23T13:19:41;3.20;;;1.77;;
37859;SDS011;23698;52.014;5.190;2022-07-23T13:22:46;2.38;;;2.00;;
37859;SDS011;23698;52.014;5.190;2022-07-23T13:25:53;3.55;;;2.03;;
37859;SDS011;23698;52.014;5.190;2022-07-23T13:28:59;3.97;;;2.00;;
37859;SDS011;23698;52.014;5.190;2022-07-23T13:32:05;3.47;;;1.75;;
37859;SDS011;23698;52.014;5.190;2022-07-23T13:35:16;4.18;;;2.20;;
37859;SDS011;23698;52.014;5.190;2022-07-23T13:38:23;5.63;;;2.20;;
37859;SDS011;23698;52.014;5.190;2022-07-23T13:41:29;3.38;;;1.80;;
37859;SDS011;23698;52.014;5.190;2022-07-23T13:44:35;5.63;;;1.90;;
37859;SDS011;23698;52.014;5.190;2022-07-23T13:47:40;3.05;;;1.70;;
37859;SDS011;23698;52.014;5.190;2022-07-23T13:50:47;2.97;;;2.15;;
37859;SDS011;23698;52.014;5.190;2022-07-23T13:53:54;3.65;;;2.22;;
37859;SDS011;23698;52.014;5.190;2022-07-23T13:57:04;3.63;;;1.90;;
37859;SDS011;23698;52.014;5.190;2022-07-23T14:00:10;3.10;;;2.05;;
37859;SDS011;23698;52.014;5.190;2022-07-23T14:03:36;6.13;;;2.30;;
37859;SDS011;23698;52.014;5.190;2022-07-23T14:06:41;4.22;;;2.50;;
37859;SDS011;23698;52.014;5.190;2022-07-23T14:09:50;4.32;;;2.38;;
37859;SDS011;23698;52.014;5.190;2022-07-23T14:12:57;2.63;;;1.85;;
37859;SDS011;23698;52.014;5.190;2022-07-23T14:16:03;2.83;;;1.67;;
37859;SDS011;23698;52.014;5.190;2022-07-23T14:19:09;3.72;;;2.08;;
37859;SDS011;23698;52.014;5.190;2022-07-23T14:22:14;5.07;;;1.88;;
37859;SDS011;23698;52.014;5.190;2022-07-23T14:25:20;4.85;;;2.30;;
37859;SDS011;23698;52.014;5.190;2022-07-23T14:28:26;2.80;;;1.95;;
37859;SDS011;23698;52.014;5.190;2022-07-23T14:31:32;2.58;;;1.58;;
37859;SDS011;23698;52.014;5.190;2022-07-23T14:34:37;3.38;;;1.48;;
37859;SDS011;23698;52.014;5.190;2022-07-23T14:37:42;4.18;;;2.08;;
37859;SDS011;23698;52.014;5.190;2022-07-23T14:40:49;2.15;;;1.90;;
37859;SDS011;23698;52.014;5.190;2022-07-23T14:43:56;1.92;;;1.77;;
37859;SDS011;23698;52.014;5.190;2022-07-23T14:47:02;3.20;;;1.90;;
37859;SDS011;23698;52.014;5.190;2022-07-23T14:50:09;2.55;;;1.73;;
37859;SDS011;23698;52.014;5.190;2022-07-23T14:53:14;3.05;;;2.25;;
37859;SDS011;23698;52.014;5.190;2022-07-23T14:56:25;1.98;;;1.80;;
37859;SDS011;23698;52.014;5.190;2022-07-23T14:59:32;4.85;;;1.70;;
37859;SDS011;23698;52.014;5.190;2022-07-23T15:02:40;2.03;;;1.90;;
37859;SDS011;23698;52.014;5.190;2022-07-23T15:05:46;2.38;;;1.80;;
37859;SDS011;23698;52.014;5.190;2022-07-23T15:08:52;2.92;;;2.08;;
37859;SDS011;23698;52.014;5.190;2022-07-23T15:11:57;2.70;;;2.10;;
37859;SDS011;23698;52.014;5.190;2022-07-23T15:15:04;5.22;;;2.50;;
37859;SDS011;23698;52.014;5.190;2022-07-23T15:18:13;4.55;;;2.75;;
37859;SDS011;23698;52.014;5.190;2022-07-23T15:21:21;4.80;;;2.13;;
37859;SDS011;23698;52.014;5.190;2022-07-23T15:24:27;2.70;;;2.45;;
37859;SDS011;23698;52.014;5.190;2022-07-23T15:27:32;5.60;;;2.22;;
37859;SDS011;23698;52.014;5.190;2022-07-23T15:30:39;2.72;;;2.25;;
37859;SDS011;23698;52.014;5.190;2022-07-23T15:33:44;2.40;;;2.20;;
37859;SDS011;23698;52.014;5.190;2022-07-23T15:36:50;4.55;;;2.13;;
37859;SDS011;23698;52.014;5.190;2022-07-23T15:39:55;4.53;;;2.42;;
37859;SDS011;23698;52.014;5.190;2022-07-23T15:43:00;2.15;;;1.95;;
37859;SDS011;23698;52.014;5.190;2022-07-23T15:46:07;3.03;;;2.15;;
37859;SDS011;23698;52.014;5.190;2022-07-23T15:49:13;5.93;;;2.25;;
37859;SDS011;23698;52.014;5.190;2022-07-23T15:52:22;5.07;;;2.35;;
37859;SDS011;23698;52.014;5.190;2022-07-23T15:55:27;4.38;;;2.03;;
37859;SDS011;23698;52.014;5.190;2022-07-23T15:58:33;4.47;;;2.13;;
37859;SDS011;23698;52.014;5.190;2022-07-23T16:01:40;3.80;;;1.90;;
37859;SDS011;23698;52.014;5.190;2022-07-23T16:04:47;3.03;;;2.35;;
37859;SDS011;23698;52.014;5.190;2022-07-23T16:07:53;4.63;;;2.78;;
37859;SDS011;23698;52.014;5.190;2022-07-23T16:10:58;3.78;;;2.22;;
37859;SDS011;23698;52.014;5.190;2022-07-23T16:14:04;3.30;;;2.35;;
37859;SDS011;23698;52.014;5.190;2022-07-23T16:17:10;6.75;;;4.30;;
37859;SDS011;23698;52.014;5.190;2022-07-23T16:20:16;3.40;;;2.63;;
37859;SDS011;23698;52.014;5.190;2022-07-23T16:23:21;12.05;;;8.52;;
37859;SDS011;23698;52.014;5.190;2022-07-23T16:26:26;7.47;;;3.95;;
37859;SDS011;23698;52.014;5.190;2022-07-23T16:29:31;2.72;;;2.00;;
37859;SDS011;23698;52.014;5.190;2022-07-23T16:32:38;2.88;;;2.30;;
37859;SDS011;23698;52.014;5.190;2022-07-23T16:35:43;2.20;;;2.00;;
37859;SDS011;23698;52.014;5.190;2022-07-23T16:38:49;2.35;;;1.90;;
37859;SDS011;23698;52.014;5.190;2022-07-23T16:41:54;3.40;;;1.90;;
37859;SDS011;23698;52.014;5.190;2022-07-23T16:44:59;3.80;;;1.73;;
37859;SDS011;23698;52.014;5.190;2022-07-23T16:48:11;3.47;;;2.35;;
37859;SDS011;23698;52.014;5.190;2022-07-23T16:51:17;4.68;;;2.55;;
37859;SDS011;23698;52.014;5.190;2022-07-23T16:54:22;14.23;;;9.68;;
37859;SDS011;23698;52.014;5.190;2022-07-23T16:57:27;2.63;;;2.10;;
37859;SDS011;23698;52.014;5.190;2022-07-23T17:00:33;3.35;;;2.10;;
37859;SDS011;23698;52.014;5.190;2022-07-23T17:03:39;3.03;;;2.20;;
37859;SDS011;23698;52.014;5.190;2022-07-23T17:06:44;2.80;;;2.20;;
37859;SDS011;23698;52.014;5.190;2022-07-23T17:09:49;2.78;;;1.95;;
37859;SDS011;23698;52.014;5.190;2022-07-23T17:12:54;5.35;;;3.42;;
37859;SDS011;23698;52.014;5.190;2022-07-23T17:16:01;4.22;;;2.30;;
37859;SDS011;23698;52.014;5.190;2022-07-23T17:19:08;3.70;;;2.10;;
37859;SDS011;23698;52.014;5.190;2022-07-23T17:22:13;3.08;;;2.08;;
37859;SDS011;23698;52.014;5.190;2022-07-23T17:25:18;3.40;;;2.65;;
37859;SDS011;23698;52.014;5.190;2022-07-23T17:28:24;3.75;;;2.30;;
37859;SDS011;23698;52.014;5.190;2022-07-23T17:31:29;4.53;;;2.38;;
37859;SDS011;23698;52.014;5.190;2022-07-23T17:34:36;3.95;;;2.78;;
37859;SDS011;23698;52.014;5.190;2022-07-23T17:37:41;4.00;;;2.38;;
37859;SDS011;23698;52.014;5.190;2022-07-23T17:40:47;7.00;;;2.60;;
37859;SDS011;23698;52.014;5.190;2022-07-23T17:43:52;3.92;;;2.72;;
37859;SDS011;23698;52.014;5.190;2022-07-23T17:46:57;3.70;;;2.38;;
37859;SDS011;23698;52.014;5.190;2022-07-23T17:50:04;3.08;;;2.70;;
37859;SDS011;23698;52.014;5.190;2022-07-23T17:53:09;3.25;;;2.30;;
37859;SDS011;23698;52.014;5.190;2022-07-23T17:56:15;3.58;;;2.60;;
37859;SDS011;23698;52.014;5.190;2022-07-23T17:59:20;5.10;;;2.55;;
37859;SDS011;23698;52.014;5.190;2022-07-23T18:02:25;3.25;;;2.45;;
37859;SDS011;23698;52.014;5.190;2022-07-23T18:05:32;5.05;;;2.63;;
37859;SDS011;23698;52.014;5.190;2022-07-23T18:08:38;4.03;;;2.70;;
37859;SDS011;23698;52.014;5.190;2022-07-23T18:11:44;4.65;;;2.80;;
37859;SDS011;23698;52.014;5.190;2022-07-23T18:14:49;6.75;;;3.53;;
37859;SDS011;23698;52.014;5.190;2022-07-23T18:17:54;3.97;;;2.70;;
37859;SDS011;23698;52.014;5.190;2022-07-23T18:21:00;5.15;;;2.70;;
37859;SDS011;23698;52.014;5.190;2022-07-23T18:24:06;3.38;;;2.50;;
37859;SDS011;23698;52.014;5.190;2022-07-23T18:27:11;3.67;;;2.70;;
37859;SDS011;23698;52.014;5.190;2022-07-23T18:30:17;3.78;;;2.85;;
37859;SDS011;23698;52.014;5.190;2022-07-23T18:33:22;5.47;;;2.53;;
37859;SDS011;23698;52.014;5.190;2022-07-23T18:36:29;7.75;;;2.28;;
37859;SDS011;23698;52.014;5.190;2022-07-23T18:39:35;4.75;;;2.35;;
37859;SDS011;23698;52.014;5.190;2022-07-23T18:42:40;2.95;;;2.10;;
37859;SDS011;23698;52.014;5.190;2022-07-23T18:45:45;4.18;;;2.55;;
37859;SDS011;23698;52.014;5.190;2022-07-23T18:48:51;2.80;;;2.50;;
37859;SDS011;23698;52.014;5.190;2022-07-23T18:51:58;4.22;;;2.47;;
37859;SDS011;23698;52.014;5.190;2022-07-23T18:55:05;4.47;;;2.90;;
37859;SDS011;23698;52.014;5.190;2022-07-23T18:58:12;4.20;;;3.10;;